sensor_id;sensor_type;location;lat;lon;timestamp;pressure;altitude;pressure_sealevel;temperature
49154;BMP280;49455;52.252;9.124;2022-07-10T00:03:15;100382.47;;;13.73
49154;BMP280;49455;52.252;9.124;2022-07-10T00:08:16;100379.22;;;13.82
49154;BMP280;49455;52.252;9.124;2022-07-10T00:13:16;100375.50;;;13.72
49154;BMP280;49455;52.252;9.124;2022-07-10T00:18:17;100379.63;;;13.64
49154;BMP280;49455;52.252;9.124;2022-07-10T00:23:17;100380.47;;;13.63
49154;BMP280;49455;52.252;9.124;2022-07-10T00:28:18;100367.13;;;13.50
49154;BMP280;49455;52.252;9.124;2022-07-10T00:33:18;100365.97;;;13.38
49154;BMP280;49455;52.252;9.124;2022-07-10T00:38:19;100364.34;;;13.43
49154;BMP280;49455;52.252;9.124;2022-07-10T00:43:19;100369.13;;;13.28
49154;BMP280;49455;52.252;9.124;2022-07-10T00:48:20;100368.19;;;13.26
49154;BMP280;49455;52.252;9.124;2022-07-10T00:53:20;100365.19;;;13.42
49154;BMP280;49455;52.252;9.124;2022-07-10T00:58:21;100368.78;;;13.47
49154;BMP280;49455;52.252;9.124;2022-07-10T01:03:21;100372.47;;;13.55
49154;BMP280;49455;52.252;9.124;2022-07-10T01:08:22;100363.59;;;13.47
49154;BMP280;49455;52.252;9.124;2022-07-10T01:13:22;100357.97;;;13.62
49154;BMP280;49455;52.252;9.124;2022-07-10T01:18:23;100352.50;;;13.54
49154;BMP280;49455;52.252;9.124;2022-07-10T01:23:24;100354.63;;;13.68
49154;BMP280;49455;52.252;9.124;2022-07-10T01:28:24;100351.91;;;13.63
49154;BMP280;49455;52.252;9.124;2022-07-10T01:33:26;100350.97;;;13.60
49154;BMP280;49455;52.252;9.124;2022-07-10T01:38:26;100335.41;;;13.61
49154;BMP280;49455;52.252;9.124;2022-07-10T01:43:27;100328.53;;;13.63
49154;BMP280;49455;52.252;9.124;2022-07-10T01:48:27;100343.19;;;13.61
49154;BMP280;49455;52.252;9.124;2022-07-10T01:53:27;100326.72;;;13.60
49154;BMP280;49455;52.252;9.124;2022-07-10T01:58:28;100320.69;;;13.62
49154;BMP280;49455;52.252;9.124;2022-07-10T02:03:28;100313.09;;;13.68
49154;BMP280;49455;52.252;9.124;2022-07-10T02:08:29;100315.69;;;13.68
49154;BMP280;49455;52.252;9.124;2022-07-10T02:13:29;100322.03;;;13.80
49154;BMP280;49455;52.252;9.124;2022-07-10T02:18:29;100314.03;;;13.71
49154;BMP280;49455;52.252;9.124;2022-07-10T02:23:30;100315.69;;;13.69
49154;BMP280;49455;52.252;9.124;2022-07-10T02:28:30;100308.50;;;13.58
49154;BMP280;49455;52.252;9.124;2022-07-10T02:33:31;100304.38;;;13.67
49154;BMP280;49455;52.252;9.124;2022-07-10T02:38:31;100295.38;;;13.52
49154;BMP280;49455;52.252;9.124;2022-07-10T02:43:32;100297.31;;;13.60
49154;BMP280;49455;52.252;9.124;2022-07-10T02:48:32;100292.38;;;13.72
49154;BMP280;49455;52.252;9.124;2022-07-10T02:53:32;100294.91;;;13.69
49154;BMP280;49455;52.252;9.124;2022-07-10T02:58:33;100289.66;;;13.66
49154;BMP280;49455;52.252;9.124;2022-07-10T03:03:34;100297.69;;;13.42
49154;BMP280;49455;52.252;9.124;2022-07-10T03:08:34;100294.94;;;13.36
49154;BMP280;49455;52.252;9.124;2022-07-10T03:13:35;100293.88;;;13.28
49154;BMP280;49455;52.252;9.124;2022-07-10T03:18:36;100281.03;;;13.34
49154;BMP280;49455;52.252;9.124;2022-07-10T03:23:37;100285.34;;;13.01
49154;BMP280;49455;52.252;9.124;2022-07-10T03:28:37;100285.13;;;12.94
49154;BMP280;49455;52.252;9.124;2022-07-10T03:33:38;100288.38;;;13.16
49154;BMP280;49455;52.252;9.124;2022-07-10T03:38:38;100289.97;;;13.11
49154;BMP280;49455;52.252;9.124;2022-07-10T03:43:39;100282.59;;;13.28
49154;BMP280;49455;52.252;9.124;2022-07-10T03:48:39;100287.75;;;13.26
49154;BMP280;49455;52.252;9.124;2022-07-10T03:53:39;100294.94;;;13.36
49154;BMP280;49455;52.252;9.124;2022-07-10T03:58:40;100314.28;;;13.48
49154;BMP280;49455;52.252;9.124;2022-07-10T04:03:40;100299.59;;;13.49
49154;BMP280;49455;52.252;9.124;2022-07-10T04:08:41;100288.31;;;13.48
49154;BMP280;49455;52.252;9.124;2022-07-10T04:13:41;100282.19;;;13.45
49154;BMP280;49455;52.252;9.124;2022-07-10T04:18:42;100291.88;;;13.52
49154;BMP280;49455;52.252;9.124;2022-07-10T04:23:42;100298.69;;;13.48
49154;BMP280;49455;52.252;9.124;2022-07-10T04:28:42;100291.03;;;13.53
49154;BMP280;49455;52.252;9.124;2022-07-10T04:33:43;100293.03;;;13.62
49154;BMP280;49455;52.252;9.124;2022-07-10T04:38:43;100293.50;;;13.47
49154;BMP280;49455;52.252;9.124;2022-07-10T04:43:44;100296.16;;;13.50
49154;BMP280;49455;52.252;9.124;2022-07-10T04:48:45;100292.78;;;13.54
49154;BMP280;49455;52.252;9.124;2022-07-10T04:53:45;100304.53;;;13.40
49154;BMP280;49455;52.252;9.124;2022-07-10T04:58:46;100301.28;;;13.47
49154;BMP280;49455;52.252;9.124;2022-07-10T05:03:46;100302.63;;;13.65
49154;BMP280;49455;52.252;9.124;2022-07-10T05:08:47;100307.09;;;13.70
49154;BMP280;49455;52.252;9.124;2022-07-10T05:13:48;100308.50;;;13.58
49154;BMP280;49455;52.252;9.124;2022-07-10T05:18:48;100302.78;;;13.72
49154;BMP280;49455;52.252;9.124;2022-07-10T05:23:48;100303.78;;;13.77
49154;BMP280;49455;52.252;9.124;2022-07-10T05:28:49;100316.84;;;13.80
49154;BMP280;49455;52.252;9.124;2022-07-10T05:33:52;100306.38;;;13.77
49154;BMP280;49455;52.252;9.124;2022-07-10T05:38:53;100307.22;;;13.76
49154;BMP280;49455;52.252;9.124;2022-07-10T05:43:53;100318.69;;;13.86
49154;BMP280;49455;52.252;9.124;2022-07-10T05:48:54;100319.81;;;13.95
49154;BMP280;49455;52.252;9.124;2022-07-10T05:53:54;100318.34;;;13.71
49154;BMP280;49455;52.252;9.124;2022-07-10T05:58:55;100317.81;;;13.85
49154;BMP280;49455;52.252;9.124;2022-07-10T06:03:55;100313.50;;;14.21
49154;BMP280;49455;52.252;9.124;2022-07-10T06:08:56;100309.69;;;14.43
49154;BMP280;49455;52.252;9.124;2022-07-10T06:13:56;100314.97;;;14.46
49154;BMP280;49455;52.252;9.124;2022-07-10T06:18:57;100316.94;;;14.57
49154;BMP280;49455;52.252;9.124;2022-07-10T06:24:00;100322.28;;;14.65
49154;BMP280;49455;52.252;9.124;2022-07-10T06:29:00;100304.59;;;14.88
49154;BMP280;49455;52.252;9.124;2022-07-10T06:34:01;100308.00;;;14.84
49154;BMP280;49455;52.252;9.124;2022-07-10T06:39:01;100310.91;;;15.01
49154;BMP280;49455;52.252;9.124;2022-07-10T06:44:02;100315.00;;;14.88
49154;BMP280;49455;52.252;9.124;2022-07-10T06:49:02;100316.06;;;14.99
49154;BMP280;49455;52.252;9.124;2022-07-10T06:54:03;100312.13;;;15.17
49154;BMP280;49455;52.252;9.124;2022-07-10T06:59:03;100312.66;;;15.45
49154;BMP280;49455;52.252;9.124;2022-07-10T07:04:04;100305.16;;;15.63
49154;BMP280;49455;52.252;9.124;2022-07-10T07:09:04;100306.78;;;16.09
49154;BMP280;49455;52.252;9.124;2022-07-10T07:14:05;100299.50;;;15.88
49154;BMP280;49455;52.252;9.124;2022-07-10T07:19:17;100298.50;;;15.80
49154;BMP280;49455;52.252;9.124;2022-07-10T07:24:17;100295.22;;;15.42
49154;BMP280;49455;52.252;9.124;2022-07-10T07:29:18;100293.88;;;15.64
49154;BMP280;49455;52.252;9.124;2022-07-10T07:34:18;100293.34;;;16.40
49154;BMP280;49455;52.252;9.124;2022-07-10T07:39:19;100291.06;;;16.03
49154;BMP280;49455;52.252;9.124;2022-07-10T07:44:19;100296.63;;;16.27
49154;BMP280;49455;52.252;9.124;2022-07-10T07:49:20;100285.81;;;16.62
49154;BMP280;49455;52.252;9.124;2022-07-10T07:54:20;100285.13;;;16.13
49154;BMP280;49455;52.252;9.124;2022-07-10T07:59:21;100292.81;;;16.04
49154;BMP280;49455;52.252;9.124;2022-07-10T08:04:21;100313.94;;;15.68
49154;BMP280;49455;52.252;9.124;2022-07-10T08:09:22;100297.94;;;15.49
49154;BMP280;49455;52.252;9.124;2022-07-10T08:14:22;100303.25;;;15.53
49154;BMP280;49455;52.252;9.124;2022-07-10T08:19:22;100301.84;;;15.72
49154;BMP280;49455;52.252;9.124;2022-07-10T08:24:23;100310.81;;;15.40
49154;BMP280;49455;52.252;9.124;2022-07-10T08:29:23;100316.66;;;15.74
49154;BMP280;49455;52.252;9.124;2022-07-10T08:34:24;100312.94;;;15.60
49154;BMP280;49455;52.252;9.124;2022-07-10T08:39:25;100321.97;;;15.81
49154;BMP280;49455;52.252;9.124;2022-07-10T08:44:25;100331.81;;;16.00
49154;BMP280;49455;52.252;9.124;2022-07-10T08:49:27;100326.56;;;16.50
49154;BMP280;49455;52.252;9.124;2022-07-10T08:54:28;100331.88;;;16.02
49154;BMP280;49455;52.252;9.124;2022-07-10T08:59:29;100332.16;;;16.19
49154;BMP280;49455;52.252;9.124;2022-07-10T09:04:30;100321.47;;;16.62
49154;BMP280;49455;52.252;9.124;2022-07-10T09:09:30;100303.50;;;16.84
49154;BMP280;49455;52.252;9.124;2022-07-10T09:14:31;100298.25;;;17.60
49154;BMP280;49455;52.252;9.124;2022-07-10T09:19:31;100295.78;;;17.76
49154;BMP280;49455;52.252;9.124;2022-07-10T09:24:40;100280.22;;;17.95
49154;BMP280;49455;52.252;9.124;2022-07-10T09:29:47;100284.56;;;17.87
49154;BMP280;49455;52.252;9.124;2022-07-10T09:34:49;100272.47;;;18.01
49154;BMP280;49455;52.252;9.124;2022-07-10T09:40:01;100269.22;;;18.38
49154;BMP280;49455;52.252;9.124;2022-07-10T09:50:23;100257.88;;;18.39
49154;BMP280;49455;52.252;9.124;2022-07-10T09:55:25;100271.53;;;17.98
49154;BMP280;49455;52.252;9.124;2022-07-10T10:00:30;100251.53;;;18.01
49154;BMP280;49455;52.252;9.124;2022-07-10T10:05:44;100242.97;;;18.27
49154;BMP280;49455;52.252;9.124;2022-07-10T10:10:47;100263.72;;;17.99
49154;BMP280;49455;52.252;9.124;2022-07-10T10:15:49;100259.53;;;18.22
49154;BMP280;49455;52.252;9.124;2022-07-10T10:20:51;100270.69;;;18.00
49154;BMP280;49455;52.252;9.124;2022-07-10T10:25:54;100269.06;;;18.17
49154;BMP280;49455;52.252;9.124;2022-07-10T10:30:57;100265.63;;;18.18
49154;BMP280;49455;52.252;9.124;2022-07-10T10:35:59;100270.66;;;17.97
49154;BMP280;49455;52.252;9.124;2022-07-10T10:41:23;100258.06;;;18.77
49154;BMP280;49455;52.252;9.124;2022-07-10T10:46:24;100272.59;;;18.22
49154;BMP280;49455;52.252;9.124;2022-07-10T10:52:29;100262.91;;;18.05
49154;BMP280;49455;52.252;9.124;2022-07-10T10:57:12;100268.75;;;17.73
49154;BMP280;49455;52.252;9.124;2022-07-10T11:02:29;100269.34;;;17.42
49154;BMP280;49455;52.252;9.124;2022-07-10T11:13:04;100274.78;;;17.63
49154;BMP280;49455;52.252;9.124;2022-07-10T11:18:07;100270.31;;;17.53
49154;BMP280;49455;52.252;9.124;2022-07-10T11:28:15;100285.59;;;17.13
49154;BMP280;49455;52.252;9.124;2022-07-10T11:33:22;100284.19;;;16.68
49154;BMP280;49455;52.252;9.124;2022-07-10T11:38:24;100290.06;;;16.53
49154;BMP280;49455;52.252;9.124;2022-07-10T11:43:24;100289.94;;;16.44
49154;BMP280;49455;52.252;9.124;2022-07-10T11:48:25;100282.59;;;16.82
49154;BMP280;49455;52.252;9.124;2022-07-10T11:53:26;100281.78;;;16.86
49154;BMP280;49455;52.252;9.124;2022-07-10T11:58:27;100283.59;;;16.93
49154;BMP280;49455;52.252;9.124;2022-07-10T12:03:27;100273.31;;;17.08
49154;BMP280;49455;52.252;9.124;2022-07-10T12:08:28;100277.16;;;17.39
49154;BMP280;49455;52.252;9.124;2022-07-10T12:13:28;100266.31;;;18.01
49154;BMP280;49455;52.252;9.124;2022-07-10T12:18:29;100268.34;;;18.37
49154;BMP280;49455;52.252;9.124;2022-07-10T12:23:30;100261.47;;;18.55
49154;BMP280;49455;52.252;9.124;2022-07-10T12:28:30;100272.34;;;17.89
49154;BMP280;49455;52.252;9.124;2022-07-10T12:33:31;100270.94;;;17.27
49154;BMP280;49455;52.252;9.124;2022-07-10T12:38:31;100282.16;;;17.19
49154;BMP280;49455;52.252;9.124;2022-07-10T12:43:32;100293.56;;;16.55
49154;BMP280;49455;52.252;9.124;2022-07-10T12:48:32;100296.06;;;16.49
49154;BMP280;49455;52.252;9.124;2022-07-10T12:53:33;100289.31;;;16.05
49154;BMP280;49455;52.252;9.124;2022-07-10T12:58:33;100303.59;;;16.25
49154;BMP280;49455;52.252;9.124;2022-07-10T13:03:33;100292.53;;;16.42
49154;BMP280;49455;52.252;9.124;2022-07-10T13:08:44;100295.41;;;16.64
49154;BMP280;49455;52.252;9.124;2022-07-10T13:13:45;100307.22;;;16.37
49154;BMP280;49455;52.252;9.124;2022-07-10T13:18:45;100300.28;;;16.36
49154;BMP280;49455;52.252;9.124;2022-07-10T13:23:46;100296.69;;;16.96
49154;BMP280;49455;52.252;9.124;2022-07-10T13:28:46;100285.09;;;17.47
49154;BMP280;49455;52.252;9.124;2022-07-10T13:33:47;100287.72;;;17.51
49154;BMP280;49455;52.252;9.124;2022-07-10T13:38:47;100282.66;;;17.69
49154;BMP280;49455;52.252;9.124;2022-07-10T13:43:48;100272.34;;;17.88
49154;BMP280;49455;52.252;9.124;2022-07-10T13:48:48;100273.91;;;17.64
49154;BMP280;49455;52.252;9.124;2022-07-10T13:53:49;100261.75;;;17.70
49154;BMP280;49455;52.252;9.124;2022-07-10T13:58:49;100271.97;;;17.42
49154;BMP280;49455;52.252;9.124;2022-07-10T14:03:50;100257.13;;;17.40
49154;BMP280;49455;52.252;9.124;2022-07-10T14:08:50;100256.53;;;17.72
49154;BMP280;49455;52.252;9.124;2022-07-10T14:13:50;100276.53;;;17.68
49154;BMP280;49455;52.252;9.124;2022-07-10T14:18:51;100272.09;;;17.60
49154;BMP280;49455;52.252;9.124;2022-07-10T14:23:51;100284.00;;;17.26
49154;BMP280;49455;52.252;9.124;2022-07-10T14:28:52;100280.91;;;16.86
49154;BMP280;49455;52.252;9.124;2022-07-10T14:33:52;100278.91;;;17.39
49154;BMP280;49455;52.252;9.124;2022-07-10T14:38:54;100271.97;;;17.44
49154;BMP280;49455;52.252;9.124;2022-07-10T14:43:54;100264.06;;;17.38
49154;BMP280;49455;52.252;9.124;2022-07-10T14:48:54;100266.38;;;18.02
49154;BMP280;49455;52.252;9.124;2022-07-10T14:53:55;100248.97;;;18.04
49154;BMP280;49455;52.252;9.124;2022-07-10T14:58:55;100248.81;;;17.85
49154;BMP280;49455;52.252;9.124;2022-07-10T15:03:56;100242.88;;;18.04
49154;BMP280;49455;52.252;9.124;2022-07-10T15:08:57;100242.22;;;18.42
49154;BMP280;49455;52.252;9.124;2022-07-10T15:13:57;100239.63;;;18.48
49154;BMP280;49455;52.252;9.124;2022-07-10T15:18:58;100234.28;;;18.27
49154;BMP280;49455;52.252;9.124;2022-07-10T15:23:59;100241.16;;;18.13
49154;BMP280;49455;52.252;9.124;2022-07-10T15:28:59;100238.44;;;18.00
49154;BMP280;49455;52.252;9.124;2022-07-10T15:34:06;100236.50;;;17.74
49154;BMP280;49455;52.252;9.124;2022-07-10T15:39:07;100243.25;;;17.45
49154;BMP280;49455;52.252;9.124;2022-07-10T15:44:07;100242.31;;;17.40
49154;BMP280;49455;52.252;9.124;2022-07-10T15:49:08;100247.44;;;17.28
49154;BMP280;49455;52.252;9.124;2022-07-10T15:54:08;100245.03;;;17.51
49154;BMP280;49455;52.252;9.124;2022-07-10T15:59:09;100240.22;;;17.04
49154;BMP280;49455;52.252;9.124;2022-07-10T16:04:09;100246.06;;;16.84
49154;BMP280;49455;52.252;9.124;2022-07-10T16:09:10;100243.69;;;17.04
49154;BMP280;49455;52.252;9.124;2022-07-10T16:14:10;100229.91;;;17.14
49154;BMP280;49455;52.252;9.124;2022-07-10T16:19:11;100235.19;;;17.22
49154;BMP280;49455;52.252;9.124;2022-07-10T16:24:11;100240.44;;;17.25
49154;BMP280;49455;52.252;9.124;2022-07-10T16:29:12;100241.34;;;17.25
49154;BMP280;49455;52.252;9.124;2022-07-10T16:34:12;100227.50;;;17.38
49154;BMP280;49455;52.252;9.124;2022-07-10T16:39:12;100228.28;;;17.29
49154;BMP280;49455;52.252;9.124;2022-07-10T16:44:13;100233.34;;;17.13
49154;BMP280;49455;52.252;9.124;2022-07-10T16:49:13;100230.78;;;17.15
49154;BMP280;49455;52.252;9.124;2022-07-10T16:54:14;100223.56;;;16.93
49154;BMP280;49455;52.252;9.124;2022-07-10T16:59:14;100219.97;;;16.82
49154;BMP280;49455;52.252;9.124;2022-07-10T17:04:15;100217.34;;;16.82
49154;BMP280;49455;52.252;9.124;2022-07-10T17:09:15;100219.16;;;16.89
49154;BMP280;49455;52.252;9.124;2022-07-10T17:14:15;100223.66;;;17.03
49154;BMP280;49455;52.252;9.124;2022-07-10T17:19:16;100211.31;;;16.88
49154;BMP280;49455;52.252;9.124;2022-07-10T17:24:17;100216.59;;;16.94
49154;BMP280;49455;52.252;9.124;2022-07-10T17:29:17;100215.69;;;16.90
49154;BMP280;49455;52.252;9.124;2022-07-10T17:34:18;100218.22;;;16.83
49154;BMP280;49455;52.252;9.124;2022-07-10T17:39:18;100219.91;;;16.78
49154;BMP280;49455;52.252;9.124;2022-07-10T17:44:19;100223.25;;;16.66
49154;BMP280;49455;52.252;9.124;2022-07-10T17:49:20;100222.56;;;16.84
49154;BMP280;49455;52.252;9.124;2022-07-10T17:54:20;100226.66;;;16.63
49154;BMP280;49455;52.252;9.124;2022-07-10T17:59:21;100232.78;;;16.64
49154;BMP280;49455;52.252;9.124;2022-07-10T18:04:21;100228.28;;;16.52
49154;BMP280;49455;52.252;9.124;2022-07-10T18:09:22;100224.47;;;16.26
49154;BMP280;49455;52.252;9.124;2022-07-10T18:14:22;100228.66;;;16.14
49154;BMP280;49455;52.252;9.124;2022-07-10T18:19:23;100232.75;;;15.99
49154;BMP280;49455;52.252;9.124;2022-07-10T18:24:23;100234.38;;;15.92
49154;BMP280;49455;52.252;9.124;2022-07-10T18:29:24;100216.38;;;16.08
49154;BMP280;49455;52.252;9.124;2022-07-10T18:34:24;100229.41;;;16.07
49154;BMP280;49455;52.252;9.124;2022-07-10T18:39:25;100230.22;;;16.04
49154;BMP280;49455;52.252;9.124;2022-07-10T18:44:26;100227.59;;;16.03
49154;BMP280;49455;52.252;9.124;2022-07-10T18:49:27;100233.66;;;16.01
49154;BMP280;49455;52.252;9.124;2022-07-10T18:54:27;100231.94;;;16.02
49154;BMP280;49455;52.252;9.124;2022-07-10T18:59:28;100234.56;;;16.05
49154;BMP280;49455;52.252;9.124;2022-07-10T19:04:29;100226.56;;;15.91
49154;BMP280;49455;52.252;9.124;2022-07-10T19:09:29;100228.88;;;15.72
49154;BMP280;49455;52.252;9.124;2022-07-10T19:14:30;100234.03;;;15.70
49154;BMP280;49455;52.252;9.124;2022-07-10T19:19:30;100234.22;;;15.80
49154;BMP280;49455;52.252;9.124;2022-07-10T20:42:19;100271.78;;;15.42
49154;BMP280;49455;52.252;9.124;2022-07-10T20:47:20;100271.56;;;15.30
49154;BMP280;49455;52.252;9.124;2022-07-10T20:52:20;100269.16;;;15.39
49154;BMP280;49455;52.252;9.124;2022-07-10T20:57:20;100264.84;;;15.42
49154;BMP280;49455;52.252;9.124;2022-07-10T21:02:21;100263.06;;;15.40
49154;BMP280;49455;52.252;9.124;2022-07-10T21:07:21;100270.38;;;15.12
49154;BMP280;49455;52.252;9.124;2022-07-10T21:12:22;100268.75;;;15.18
49154;BMP280;49455;52.252;9.124;2022-07-10T21:17:22;100269.56;;;15.15
49154;BMP280;49455;52.252;9.124;2022-07-10T21:22:23;100271.13;;;15.06
49154;BMP280;49455;52.252;9.124;2022-07-10T21:27:23;100274.53;;;15.05
49154;BMP280;49455;52.252;9.124;2022-07-10T21:32:24;100268.66;;;15.12
49154;BMP280;49455;52.252;9.124;2022-07-10T21:37:24;100274.66;;;15.10
49154;BMP280;49455;52.252;9.124;2022-07-10T21:42:25;100279.00;;;15.09
49154;BMP280;49455;52.252;9.124;2022-07-10T21:47:25;100288.47;;;15.07
49154;BMP280;49455;52.252;9.124;2022-07-10T21:52:26;100275.47;;;15.07
49154;BMP280;49455;52.252;9.124;2022-07-10T21:57:26;100273.72;;;15.06
49154;BMP280;49455;52.252;9.124;2022-07-10T22:02:26;100274.78;;;15.14
49154;BMP280;49455;52.252;9.124;2022-07-10T22:07:27;100268.91;;;15.27
49154;BMP280;49455;52.252;9.124;2022-07-10T22:12:27;100279.13;;;15.16
49154;BMP280;49455;52.252;9.124;2022-07-10T22:17:28;100268.75;;;15.18
49154;BMP280;49455;52.252;9.124;2022-07-10T22:22:28;100273.84;;;15.12
49154;BMP280;49455;52.252;9.124;2022-07-10T22:27:29;100273.91;;;15.15
49154;BMP280;49455;52.252;9.124;2022-07-10T22:32:29;100275.47;;;15.07
49154;BMP280;49455;52.252;9.124;2022-07-10T22:37:30;100278.06;;;15.07
49154;BMP280;49455;52.252;9.124;2022-07-10T22:42:30;100268.50;;;15.06
49154;BMP280;49455;52.252;9.124;2022-07-10T22:47:31;100267.63;;;15.06
49154;BMP280;49455;52.252;9.124;2022-07-10T22:52:31;100276.31;;;15.06
49154;BMP280;49455;52.252;9.124;2022-07-10T22:57:35;100270.03;;;14.97
49154;BMP280;49455;52.252;9.124;2022-07-10T23:02:35;100263.13;;;14.97
49154;BMP280;49455;52.252;9.124;2022-07-10T23:07:35;100261.22;;;14.87
49154;BMP280;49455;52.252;9.124;2022-07-10T23:12:36;100259.63;;;14.95
49154;BMP280;49455;52.252;9.124;2022-07-10T23:17:36;100261.47;;;15.01
49154;BMP280;49455;52.252;9.124;2022-07-10T23:22:37;100253.72;;;15.04
49154;BMP280;49455;52.252;9.124;2022-07-10T23:27:38;100251.94;;;15.01
49154;BMP280;49455;52.252;9.124;2022-07-10T23:32:38;100252.91;;;15.08
49154;BMP280;49455;52.252;9.124;2022-07-10T23:37:38;100243.44;;;15.10
49154;BMP280;49455;52.252;9.124;2022-07-10T23:42:39;100247.09;;;15.20
49154;BMP280;49455;52.252;9.124;2022-07-10T23:47:39;100240.22;;;15.22
49154;BMP280;49455;52.252;9.124;2022-07-10T23:52:41;100241.78;;;15.14
49154;BMP280;49455;52.252;9.124;2022-07-10T23:57:42;100230.81;;;15.32
